Time;durP1;ratioP1;P1;durP2;ratioP2;P2;SDS_P1;SDS_P2;PMS_P1;PMS_P2;Temp;Humidity;BMP_temperature;BMP_pressure;BME280_temperature;BME280_humidity;BME280_pressure;Samples;Min_cycle;Max_cycle;Signal;HPM_P1;HPM_P2
2022/02/10 00:03:23;;;;;;;10.10;3.60;;;4.60;99.90;;;;;;5044289;28;20083;-63
2022/02/10 00:17:25;;;;;;;6.82;3.33;;;4.20;99.90;;;;;;5046690;28;20500;-62
2022/02/10 00:34:09;;;;;;;10.15;4.40;;;4.10;99.90;;;;;;5033292;28;20035;-62
2022/02/10 00:34:59;;;;;;;8.75;4.20;;;3.90;99.90;;;;;;5014852;28;20464;-62
2022/02/10 00:37:57;;;;;;;9.52;3.95;;;3.80;99.90;;;;;;5015780;28;20083;-62
2022/02/10 00:40:41;;;;;;;11.00;4.53;;;3.80;99.90;;;;;;5012667;28;20120;-62
2022/02/10 00:43:25;;;;;;;11.65;3.80;;;3.70;99.90;;;;;;5024128;28;20093;-60
2022/02/10 00:46:09;;;;;;;12.05;4.47;;;3.60;99.90;;;;;;5021446;28;20048;-62
2022/02/10 00:48:53;;;;;;;8.73;3.67;;;3.50;99.90;;;;;;5021770;28;20060;-61
2022/02/10 00:51:38;;;;;;;8.52;4.05;;;3.60;99.90;;;;;;5013040;28;20040;-62
2022/02/10 00:54:27;;;;;;;8.32;4.45;;;3.50;99.90;;;;;;5006569;28;20154;-62
2022/02/10 00:57:13;;;;;;;12.13;4.45;;;3.50;99.90;;;;;;5018028;28;20665;-62
2022/02/10 01:24:26;;;;;;;11.63;4.63;;;3.20;99.90;;;;;;5007454;28;20033;-63
2022/02/10 01:29:48;;;;;;;10.90;4.97;;;3.10;99.90;;;;;;5002225;28;20105;-62
2022/02/10 01:32:32;;;;;;;10.20;4.63;;;3.10;99.90;;;;;;5012809;28;20070;-61
2022/02/10 01:35:21;;;;;;;14.57;5.30;;;3.10;99.90;;;;;;5009835;28;20041;-62
2022/02/10 01:38:05;;;;;;;9.77;5.38;;;3.00;99.90;;;;;;5008363;28;20103;-62
2022/02/10 02:05:25;;;;;;;12.60;5.38;;;2.80;99.90;;;;;;5006650;28;20032;-61
2022/02/10 02:08:10;;;;;;;12.50;4.97;;;2.80;99.90;;;;;;5010072;28;20044;-62
2022/02/10 02:10:55;;;;;;;10.82;4.85;;;2.70;99.90;;;;;;5013672;28;20464;-62
2022/02/10 02:13:40;;;;;;;11.85;5.88;;;2.80;99.90;;;;;;5003101;28;20160;-62
2022/02/10 02:16:26;;;;;;;8.30;5.18;;;2.70;99.90;;;;;;5011188;28;20417;-63
2022/02/10 02:19:10;;;;;;;72.55;8.02;;;2.70;99.90;;;;;;5008729;28;20120;-62
2022/02/10 02:22:05;;;;;;;9.63;5.60;;;2.70;99.90;;;;;;5011820;28;20600;-62
2022/02/10 02:24:50;;;;;;;11.48;6.20;;;2.70;99.90;;;;;;5006925;28;20492;-62
2022/02/10 02:27:48;;;;;;;12.77;5.68;;;2.60;99.90;;;;;;5012743;28;20033;-63
2022/02/10 02:30:44;;;;;;;13.82;5.75;;;2.60;99.90;;;;;;4997260;28;20059;-61
2022/02/10 03:06:33;;;;;;;15.23;7.50;;;2.40;99.90;;;;;;5009033;28;20041;-62
2022/02/10 03:09:23;;;;;;;19.02;8.00;;;2.40;99.90;;;;;;5001394;28;20041;-62
2022/02/10 03:12:10;;;;;;;15.65;7.30;;;2.30;99.90;;;;;;5010974;28;20037;-61
2022/02/10 03:14:58;;;;;;;19.00;7.23;;;2.30;99.90;;;;;;5007206;28;20682;-62
2022/02/10 03:18:14;;;;;;;21.55;6.88;;;2.30;99.90;;;;;;5015631;28;20319;-63
2022/02/10 03:21:22;;;;;;;16.40;6.63;;;2.30;99.90;;;;;;5007810;28;20040;-63
2022/02/10 04:01:40;;;;;;;15.77;6.20;;;2.30;99.90;;;;;;5009197;28;20103;-62
2022/02/10 04:27:26;;;;;;;19.30;6.95;;;2.60;99.90;;;;;;5014025;28;20056;-63
2022/02/10 04:30:30;;;;;;;24.15;7.97;;;2.70;99.90;;;;;;5008818;28;20502;-62
2022/02/10 05:13:52;;;;;;;16.45;6.18;;;2.70;99.90;;;;;;5008139;28;20064;-62
2022/02/10 05:34:02;;;;;;;10.98;6.15;;;2.70;99.90;;;;;;5006209;28;20417;-62
2022/02/10 05:36:47;;;;;;;16.02;6.13;;;2.70;99.90;;;;;;5010145;28;20036;-63
2022/02/10 05:39:34;;;;;;;19.05;6.20;;;2.70;99.90;;;;;;5008784;28;20044;-62
2022/02/10 05:42:46;;;;;;;15.27;7.55;;;2.70;99.90;;;;;;5010855;28;20499;-62
2022/02/10 05:45:33;;;;;;;12.90;4.88;;;2.70;99.90;;;;;;5008219;28;21134;-63
2022/02/10 05:51:45;;;;;;;13.65;5.15;;;2.70;99.90;;;;;;5007626;28;20620;-64
2022/02/10 05:54:30;;;;;;;10.77;5.00;;;2.80;99.90;;;;;;5002853;28;20068;-62
2022/02/10 05:57:43;;;;;;;10.13;4.50;;;2.80;99.90;;;;;;5014382;28;20407;-62
2022/02/10 06:01:22;;;;;;;11.80;5.10;;;2.80;99.90;;;;;;5009429;28;20058;-63
2022/02/10 06:42:47;;;;;;;11.77;3.90;;;3.10;99.90;;;;;;4980228;28;20037;-62
2022/02/10 06:53:21;;;;;;;14.65;3.83;;;3.20;99.90;;;;;;4992503;28;20032;-62
2022/02/10 07:14:57;;;;;;;13.48;5.30;;;3.30;99.90;;;;;;5006822;28;20149;-62
2022/02/10 07:48:42;;;;;;;17.70;5.78;;;4.00;99.90;;;;;;5008044;28;20033;-63
2022/02/10 07:51:57;;;;;;;12.40;4.82;;;4.10;99.90;;;;;;5014261;28;20037;-64
2022/02/10 07:55:12;;;;;;;13.27;5.55;;;4.20;99.90;;;;;;5002865;28;20088;-64
2022/02/10 08:29:45;;;;;;;14.75;6.65;;;5.50;99.90;;;;;;5010378;28;20069;-63
2022/02/10 08:50:13;;;;;;;14.02;6.38;;;5.50;99.90;;;;;;5003141;28;20036;-63
2022/02/10 08:56:08;;;;;;;16.47;7.23;;;5.40;99.90;;;;;;5007588;28;20398;-63
2022/02/10 08:59:35;;;;;;;14.98;6.95;;;5.30;99.90;;;;;;5015543;28;20135;-63
2022/02/10 09:02:53;;;;;;;16.70;8.10;;;5.20;99.90;;;;;;5014957;28;20083;-64
2022/02/10 09:21:04;;;;;;;17.80;8.85;;;4.90;99.90;;;;;;5003195;28;20037;-63
2022/02/10 10:00:26;;;;;;;31.25;13.35;;;4.60;99.90;;;;;;5009106;28;20067;-63
2022/02/10 10:03:26;;;;;;;28.17;13.40;;;4.70;99.90;;;;;;5009704;28;20409;-63
2022/02/10 10:06:18;;;;;;;24.83;11.93;;;4.70;99.90;;;;;;5010861;28;20041;-63
2022/02/10 10:09:18;;;;;;;24.13;12.85;;;4.70;99.90;;;;;;5010217;28;20092;-62
2022/02/10 10:15:38;;;;;;;24.75;12.73;;;4.80;99.90;;;;;;5001075;28;20049;-62
2022/02/10 10:21:49;;;;;;;28.77;12.35;;;4.90;99.90;;;;;;5011659;28;20101;-62
2022/02/10 10:55:31;;;;;;;21.80;11.38;;;5.90;99.90;;;;;;5005288;28;20084;-62
2022/02/10 10:58:29;;;;;;;21.33;11.65;;;5.80;99.90;;;;;;5004491;28;20036;-63
2022/02/10 11:22:13;;;;;;;18.58;10.93;;;5.70;99.90;;;;;;5011150;28;20095;-63
2022/02/10 11:24:11;;;;;;;18.75;10.73;;;5.40;99.90;;;;;;5006950;28;20037;-63
2022/02/10 12:32:18;;;;;;;16.30;10.48;;;6.60;99.90;;;;;;5013282;28;20044;-63
2022/02/10 13:24:00;;;;;;;8.90;4.80;;;5.70;99.90;;;;;;5006678;28;20045;-63
2022/02/10 13:33:15;;;;;;;7.10;5.05;;;5.60;99.90;;;;;;5012883;28;20092;-63
2022/02/10 14:21:11;;;;;;;11.70;4.72;;;5.30;99.90;;;;;;5013536;28;20036;-63
2022/02/10 14:26:47;;;;;;;6.10;3.67;;;5.30;99.90;;;;;;5010401;28;20172;-63
2022/02/10 14:29:34;;;;;;;5.05;3.45;;;5.40;99.90;;;;;;5004475;28;20029;-63
2022/02/10 14:32:21;;;;;;;4.68;3.10;;;5.40;99.90;;;;;;5014205;28;20065;-64
2022/02/10 14:35:14;;;;;;;4.10;3.00;;;5.50;99.90;;;;;;5007689;28;20684;-63
2022/02/10 15:30:19;;;;;;;1.20;1.00;;;5.20;99.90;;;;;;5009135;28;20121;-64
2022/02/10 15:50:49;;;;;;;1.55;1.00;;;5.10;99.90;;;;;;5008031;28;20079;-64
2022/02/10 15:56:48;;;;;;;1.23;1.10;;;5.10;99.90;;;;;;5016817;28;20058;-64
2022/02/10 16:12:40;;;;;;;1.20;0.90;;;5.00;99.90;;;;;;5019804;28;20684;-64
2022/02/10 16:17:57;;;;;;;1.75;1.00;;;5.00;99.90;;;;;;5011389;28;20726;-63
2022/02/10 16:20:48;;;;;;;2.10;1.20;;;4.90;99.90;;;;;;5004356;28;20044;-63
2022/02/10 16:23:33;;;;;;;1.40;0.98;;;4.90;99.90;;;;;;5013162;28;20053;-64
2022/02/10 16:26:17;;;;;;;2.08;1.35;;;4.80;99.90;;;;;;5015869;28;20088;-64
2022/02/10 16:29:02;;;;;;;1.48;1.10;;;4.80;99.90;;;;;;5008533;28;20029;-61
2022/02/10 16:31:47;;;;;;;2.22;0.85;;;4.90;99.90;;;;;;5010732;28;20029;-61
2022/02/10 16:34:32;;;;;;;1.50;1.30;;;4.80;99.90;;;;;;5006539;28;20172;-63
2022/02/10 16:37:17;;;;;;;1.30;0.90;;;4.80;99.90;;;;;;5015686;28;20032;-61
2022/02/10 16:40:03;;;;;;;2.97;0.80;;;4.80;99.90;;;;;;5002959;28;20421;-63
2022/02/10 16:42:49;;;;;;;1.88;1.20;;;4.80;99.90;;;;;;5017915;28;20115;-64
2022/02/10 16:45:34;;;;;;;2.67;1.70;;;4.80;99.90;;;;;;5016537;28;20128;-64
2022/02/10 16:48:18;;;;;;;1.83;1.40;;;4.80;99.90;;;;;;5010541;28;20040;-64
2022/02/10 16:51:08;;;;;;;2.15;1.63;;;4.80;99.90;;;;;;5015671;28;20083;-64
2022/02/10 16:53:59;;;;;;;1.73;1.20;;;4.80;99.90;;;;;;5001976;28;20530;-66
2022/02/10 16:57:37;;;;;;;4.93;1.30;;;4.80;99.90;;;;;;5014634;28;20505;-64
2022/02/10 17:00:09;;;;;;;1.92;1.30;;;4.80;99.90;;;;;;5002680;28;20762;-63
2022/02/10 17:03:16;;;;;;;2.65;1.52;;;4.80;99.90;;;;;;5011591;28;20564;-64
2022/02/10 17:16:14;;;;;;;2.40;1.27;;;4.60;99.90;;;;;;5007718;28;20137;-64
2022/02/10 17:30:55;;;;;;;9.30;1.38;;;4.30;99.90;;;;;;5010737;28;20037;-63
2022/02/10 17:33:21;;;;;;;7.45;1.77;;;4.20;99.90;;;;;;5014621;28;20099;-63
2022/02/10 17:36:24;;;;;;;10.35;1.73;;;4.10;99.90;;;;;;5007500;28;20032;-63
2022/02/10 17:51:31;;;;;;;11.35;2.10;;;4.20;99.90;;;;;;5008609;28;20091;-63
2022/02/10 17:54:16;;;;;;;6.57;2.25;;;4.20;99.90;;;;;;5016658;28;20064;-63
2022/02/10 17:57:01;;;;;;;3.05;1.90;;;4.20;99.90;;;;;;5014640;28;20053;-63
2022/02/10 17:59:45;;;;;;;5.03;2.20;;;4.10;99.90;;;;;;5010257;28;20605;-62
2022/02/10 18:02:30;;;;;;;5.25;1.90;;;4.20;99.90;;;;;;5000319;28;20048;-62
2022/02/10 18:08:26;;;;;;;5.00;1.70;;;4.10;99.90;;;;;;5010074;28;20389;-63
2022/02/10 18:14:23;;;;;;;3.45;2.20;;;4.10;99.90;;;;;;5011243;28;20068;-63
2022/02/10 18:19:59;;;;;;;12.23;2.10;;;4.00;99.90;;;;;;5000425;28;20063;-63
2022/02/10 18:28:34;;;;;;;5.13;1.77;;;3.80;99.90;;;;;;5009798;28;20041;-64
2022/02/10 19:08:09;;;;;;;3.78;2.35;;;3.70;99.90;;;;;;5033824;28;20041;-63
2022/02/10 19:10:57;;;;;;;4.45;2.03;;;3.70;99.90;;;;;;5021702;28;20032;-64
2022/02/10 19:13:43;;;;;;;3.50;2.20;;;3.70;99.90;;;;;;5035269;28;20095;-64
2022/02/10 19:16:27;;;;;;;3.55;1.98;;;3.60;99.90;;;;;;5032521;28;20056;-63
2022/02/10 19:19:13;;;;;;;2.30;1.90;;;3.60;99.90;;;;;;5026730;28;20165;-63
2022/02/10 19:21:58;;;;;;;3.35;1.90;;;3.60;99.90;;;;;;5030444;28;20504;-64
2022/02/10 19:24:42;;;;;;;4.68;1.70;;;3.60;99.90;;;;;;5028486;28;20555;-63
2022/02/10 19:27:26;;;;;;;3.45;1.80;;;3.60;99.90;;;;;;5033630;28;20095;-64
2022/02/10 19:30:13;;;;;;;2.45;1.60;;;3.60;99.90;;;;;;5031826;28;20086;-63
2022/02/10 19:33:01;;;;;;;2.95;2.17;;;3.70;99.90;;;;;;5036079;28;20041;-63
2022/02/10 19:35:48;;;;;;;6.25;3.17;;;3.70;99.90;;;;;;5024221;28;20078;-63
2022/02/10 19:38:32;;;;;;;4.18;1.80;;;3.70;99.90;;;;;;5033064;28;20052;-63
2022/02/10 19:41:16;;;;;;;4.18;2.22;;;3.60;99.90;;;;;;5028958;28;20035;-63
2022/02/10 19:44:01;;;;;;;4.15;2.80;;;3.60;99.90;;;;;;5032108;28;20064;-63
2022/02/10 19:46:46;;;;;;;3.75;2.15;;;3.50;99.90;;;;;;5034342;28;20079;-63
2022/02/10 19:49:31;;;;;;;4.63;2.13;;;3.50;99.90;;;;;;5027670;28;20524;-63
2022/02/10 19:52:17;;;;;;;3.33;2.17;;;3.60;99.90;;;;;;5040029;28;20645;-63
2022/02/10 19:55:02;;;;;;;3.55;2.03;;;3.60;99.90;;;;;;5031619;28;20115;-64
2022/02/10 19:57:49;;;;;;;3.05;2.20;;;3.60;99.90;;;;;;5035692;28;20100;-63
2022/02/10 20:00:38;;;;;;;;;;;3.60;99.90;;;;;;5032640;28;20052;-63
2022/02/10 20:03:24;;;;;;;2.42;1.63;;;3.60;99.90;;;;;;5030989;28;19920;-63
2022/02/10 20:06:08;;;;;;;2.53;1.70;;;3.70;99.90;;;;;;5033551;28;20047;-63
2022/02/10 20:08:52;;;;;;;3.58;2.38;;;3.60;99.90;;;;;;5014400;28;20714;-64
2022/02/10 20:11:37;;;;;;;3.17;2.20;;;3.60;99.90;;;;;;5036502;28;20035;-64
2022/02/10 20:14:23;;;;;;;4.35;2.25;;;3.60;99.90;;;;;;5025861;28;20036;-63
2022/02/10 20:17:07;;;;;;;2.63;2.05;;;3.50;99.90;;;;;;5037821;28;20103;-64
2022/02/10 20:19:52;;;;;;;3.80;1.83;;;3.50;99.90;;;;;;5023237;28;20559;-63
2022/02/10 20:22:38;;;;;;;5.05;2.13;;;3.60;99.90;;;;;;5037528;28;20044;-63
2022/02/10 20:25:23;;;;;;;3.90;2.85;;;3.50;99.90;;;;;;5031777;28;20128;-63
2022/02/10 20:28:09;;;;;;;3.78;2.63;;;3.50;99.90;;;;;;5038762;28;20104;-63
2022/02/10 20:30:55;;;;;;;4.70;2.42;;;3.30;99.90;;;;;;5026460;28;20040;-63
2022/02/10 20:33:40;;;;;;;4.10;2.33;;;3.30;99.90;;;;;;5033893;28;20111;-63
2022/02/10 20:36:24;;;;;;;3.13;2.53;;;3.30;99.90;;;;;;4972917;28;20068;-63
2022/02/10 20:39:09;;;;;;;4.38;2.35;;;3.20;99.90;;;;;;5005423;28;20088;-63
2022/02/10 20:42:02;;;;;;;2.88;2.15;;;3.20;99.90;;;;;;5009209;28;20728;-63
2022/02/10 20:44:51;;;;;;;3.03;2.10;;;3.10;99.90;;;;;;4993174;28;20104;-63
2022/02/10 20:47:36;;;;;;;2.95;2.17;;;3.00;99.90;;;;;;5008219;28;20033;-64
2022/02/10 20:50:21;;;;;;;2.90;1.63;;;3.00;99.90;;;;;;5006203;28;20123;-63
2022/02/10 20:53:05;;;;;;;2.38;1.73;;;3.00;99.90;;;;;;5009253;28;20508;-63
2022/02/10 20:55:49;;;;;;;2.70;1.60;;;3.00;99.90;;;;;;5008373;28;20105;-63
2022/02/10 20:58:33;;;;;;;1.25;0.90;;;3.00;99.90;;;;;;5009732;28;20045;-63
2022/02/10 21:01:18;;;;;;;3.88;2.03;;;2.90;99.90;;;;;;5015671;28;20119;-63
2022/02/10 21:04:03;;;;;;;1.58;1.05;;;2.80;99.90;;;;;;5023688;28;20139;-63
2022/02/10 21:06:57;;;;;;;3.00;1.30;;;2.80;99.90;;;;;;5038750;28;20553;-63
2022/02/10 21:09:51;;;;;;;1.80;1.00;;;2.70;99.90;;;;;;5028767;28;20075;-67
2022/02/10 21:12:38;;;;;;;0.95;0.80;;;2.70;99.90;;;;;;5033222;28;20033;-63
2022/02/10 21:15:34;;;;;;;1.25;0.60;;;2.80;99.90;;;;;;5029937;28;20488;-63
2022/02/10 21:18:19;;;;;;;2.10;1.00;;;2.80;99.90;;;;;;5030439;28;20414;-63
2022/02/10 21:21:09;;;;;;;1.17;0.70;;;2.80;99.90;;;;;;5027992;28;20083;-63
2022/02/10 21:23:56;;;;;;;3.92;0.85;;;2.80;99.90;;;;;;5030729;28;20553;-63
2022/02/10 21:27:01;;;;;;;0.88;0.63;;;2.60;99.90;;;;;;5031451;28;20416;-63
2022/02/10 21:29:52;;;;;;;0.73;0.50;;;2.60;99.90;;;;;;5028983;28;20793;-63
2022/02/10 21:32:44;;;;;;;2.90;0.60;;;2.60;99.90;;;;;;5031457;28;20098;-63
2022/02/10 21:35:50;;;;;;;0.77;0.50;;;2.60;99.90;;;;;;5030393;28;20032;-64
2022/02/10 21:38:38;;;;;;;1.20;0.60;;;2.60;99.90;;;;;;5028325;28;20035;-63
2022/02/10 21:53:40;;;;;;;0.70;0.50;;;2.60;99.90;;;;;;5029179;28;20040;-62
2022/02/10 21:56:31;;;;;;;0.82;0.60;;;2.50;99.90;;;;;;5029530;28;20037;-64
2022/02/10 22:10:48;;;;;;;0.88;0.60;;;2.30;99.90;;;;;;5025558;28;20773;-63
2022/02/10 22:17:07;;;;;;;0.82;0.70;;;2.10;99.90;;;;;;5028856;28;20119;-64
2022/02/10 22:19:58;;;;;;;0.63;0.50;;;2.10;99.90;;;;;;5025847;28;20090;-64
2022/02/10 22:23:02;;;;;;;0.80;0.68;;;2.20;99.90;;;;;;5028195;28;20107;-63
2022/02/10 22:25:48;;;;;;;0.57;0.55;;;2.10;99.90;;;;;;5030060;28;20045;-63
2022/02/10 22:28:48;;;;;;;1.15;0.77;;;2.10;99.90;;;;;;5029698;28;20045;-63
2022/02/10 22:31:46;;;;;;;1.17;0.75;;;2.10;99.90;;;;;;5038352;28;20102;-64
2022/02/10 22:34:38;;;;;;;1.48;0.90;;;2.00;99.90;;;;;;5027316;28;20040;-63
2022/02/10 22:37:23;;;;;;;2.00;0.65;;;2.00;99.90;;;;;;5027907;28;20103;-63
2022/02/10 22:40:23;;;;;;;1.25;0.73;;;2.00;99.90;;;;;;5028054;28;20132;-64
2022/02/10 22:43:07;;;;;;;2.28;0.70;;;1.90;99.90;;;;;;5027709;28;20512;-63
2022/02/10 22:45:51;;;;;;;0.90;0.70;;;1.90;99.90;;;;;;5035325;28;20055;-64
2022/02/10 22:48:36;;;;;;;1.52;0.60;;;1.90;99.90;;;;;;5033053;28;20076;-64
2022/02/10 22:51:22;;;;;;;0.57;0.57;;;1.80;99.90;;;;;;5024943;28;20087;-63
2022/02/10 22:54:07;;;;;;;0.55;0.50;;;1.80;99.90;;;;;;5032552;28;20040;-63
2022/02/10 22:56:52;;;;;;;1.92;0.90;;;1.80;99.90;;;;;;5032345;28;20044;-64
2022/02/10 22:59:36;;;;;;;1.35;0.80;;;1.90;99.90;;;;;;5028143;28;20393;-63
2022/02/10 23:07:32;;;;;;;1.05;0.55;;;1.70;99.90;;;;;;5121380;27;20689;-64
2022/02/10 23:13:04;;;;;;;1.88;0.85;;;1.70;99.90;;;;;;5116143;28;20038;-64
2022/02/10 23:15:50;;;;;;;2.00;1.30;;;1.70;99.90;;;;;;5116273;28;20709;-64
2022/02/10 23:18:36;;;;;;;3.10;0.93;;;1.70;99.90;;;;;;5120024;28;20501;-65
2022/02/10 23:21:21;;;;;;;1.70;0.98;;;1.70;99.90;;;;;;5118634;28;20441;-64
2022/02/10 23:24:05;;;;;;;1.73;0.95;;;1.80;99.90;;;;;;5107528;28;20034;-65
2022/02/10 23:26:53;;;;;;;3.35;1.17;;;1.70;99.90;;;;;;5115652;28;21006;-65
2022/02/10 23:29:37;;;;;;;1.55;0.80;;;1.70;99.90;;;;;;5117832;28;20058;-64
2022/02/10 23:32:21;;;;;;;2.45;0.80;;;1.70;99.90;;;;;;5075114;27;20093;-64
2022/02/10 23:35:13;;;;;;;3.33;1.13;;;1.70;99.90;;;;;;5070962;28;20035;-65
2022/02/10 23:37:58;;;;;;;4.03;1.20;;;1.70;99.90;;;;;;5075017;28;20404;-64
2022/02/10 23:41:46;;;;;;;3.25;1.23;;;1.70;99.90;;;;;;5072300;28;20035;-64
2022/02/10 23:43:50;;;;;;;2.22;0.82;;;1.70;99.90;;;;;;5071070;28;20039;-64
2022/02/10 23:46:35;;;;;;;6.55;0.90;;;1.70;99.90;;;;;;5074905;28;20063;-65
2022/02/10 23:49:20;;;;;;;2.53;1.20;;;1.70;99.90;;;;;;5069211;28;20032;-65
2022/02/10 23:52:07;;;;;;;5.28;0.90;;;1.80;99.90;;;;;;5069569;28;20035;-64
2022/02/10 23:54:57;;;;;;;1.42;0.82;;;1.70;99.90;;;;;;5072438;28;20068;-65
